sensor_id;sensor_type;location;lat;lon;timestamp;temperature;humidity
67275;DHT22;55463;52.324;5.122;2022-12-10T00:01:26;-0.01;98.49
67275;DHT22;55463;52.324;5.122;2022-12-10T00:03:52;-0.01;98.58
67275;DHT22;55463;52.324;5.122;2022-12-10T00:06:20;-0.04;98.64
67275;DHT22;55463;52.324;5.122;2022-12-10T00:08:46;-0.06;98.63
67275;DHT22;55463;52.324;5.122;2022-12-10T00:11:13;-0.05;98.54
67275;DHT22;55463;52.324;5.122;2022-12-10T00:13:40;-0.09;98.28
67275;DHT22;55463;52.324;5.122;2022-12-10T00:16:08;-0.05;98.58
67275;DHT22;55463;52.324;5.122;2022-12-10T00:18:34;-0.08;98.29
67275;DHT22;55463;52.324;5.122;2022-12-10T00:21:05;-0.11;98.49
67275;DHT22;55463;52.324;5.122;2022-12-10T00:23:31;-0.13;98.47
67275;DHT22;55463;52.324;5.122;2022-12-10T00:26:06;-0.16;98.55
67275;DHT22;55463;52.324;5.122;2022-12-10T00:28:31;-0.21;98.82
67275;DHT22;55463;52.324;5.122;2022-12-10T00:31:08;-0.18;99.00
67275;DHT22;55463;52.324;5.122;2022-12-10T00:33:34;-0.19;99.16
67275;DHT22;55463;52.324;5.122;2022-12-10T00:36:06;-0.13;99.43
67275;DHT22;55463;52.324;5.122;2022-12-10T00:38:32;-0.08;99.40
67275;DHT22;55463;52.324;5.122;2022-12-10T00:40:58;-0.06;99.33
67275;DHT22;55463;52.324;5.122;2022-12-10T00:43:23;-0.02;99.44
67275;DHT22;55463;52.324;5.122;2022-12-10T00:45:49;-0.02;99.65
67275;DHT22;55463;52.324;5.122;2022-12-10T00:48:14;-0.04;99.71
67275;DHT22;55463;52.324;5.122;2022-12-10T00:50:40;-0.12;99.83
67275;DHT22;55463;52.324;5.122;2022-12-10T00:53:05;-0.15;99.92
67275;DHT22;55463;52.324;5.122;2022-12-10T00:55:30;-0.18;99.98
67275;DHT22;55463;52.324;5.122;2022-12-10T00:57:56;-0.21;99.99
67275;DHT22;55463;52.324;5.122;2022-12-10T01:00:21;-0.40;99.99
67275;DHT22;55463;52.324;5.122;2022-12-10T01:02:46;-0.49;99.99
67275;DHT22;55463;52.324;5.122;2022-12-10T01:05:12;-0.53;99.99
67275;DHT22;55463;52.324;5.122;2022-12-10T01:07:37;-0.56;99.99
67275;DHT22;55463;52.324;5.122;2022-12-10T01:10:03;-0.53;99.99
67275;DHT22;55463;52.324;5.122;2022-12-10T01:12:28;-0.49;99.99
67275;DHT22;55463;52.324;5.122;2022-12-10T01:14:54;-0.49;99.99
67275;DHT22;55463;52.324;5.122;2022-12-10T01:17:19;-0.49;99.99
67275;DHT22;55463;52.324;5.122;2022-12-10T01:19:46;-0.44;99.99
67275;DHT22;55463;52.324;5.122;2022-12-10T01:22:12;-0.43;99.99
67275;DHT22;55463;52.324;5.122;2022-12-10T01:24:37;-0.40;99.99
67275;DHT22;55463;52.324;5.122;2022-12-10T01:27:03;-0.41;99.99
67275;DHT22;55463;52.324;5.122;2022-12-10T01:29:28;-0.34;99.99
67275;DHT22;55463;52.324;5.122;2022-12-10T01:31:55;-0.33;99.99
67275;DHT22;55463;52.324;5.122;2022-12-10T01:34:22;-0.33;99.99
67275;DHT22;55463;52.324;5.122;2022-12-10T01:36:52;-0.29;99.99
67275;DHT22;55463;52.324;5.122;2022-12-10T01:39:20;-0.29;99.99
67275;DHT22;55463;52.324;5.122;2022-12-10T01:41:55;-0.29;99.99
67275;DHT22;55463;52.324;5.122;2022-12-10T01:46:47;-0.30;99.99
67275;DHT22;55463;52.324;5.122;2022-12-10T01:49:19;-0.36;99.99
67275;DHT22;55463;52.324;5.122;2022-12-10T01:51:45;-0.36;99.99
67275;DHT22;55463;52.324;5.122;2022-12-10T01:54:19;-0.41;99.99
67275;DHT22;55463;52.324;5.122;2022-12-10T01:56:49;-0.32;99.99
67275;DHT22;55463;52.324;5.122;2022-12-10T01:59:15;-0.29;99.99
67275;DHT22;55463;52.324;5.122;2022-12-10T02:02:08;-0.26;99.99
67275;DHT22;55463;52.324;5.122;2022-12-10T02:07:53;-0.33;99.99
67275;DHT22;55463;52.324;5.122;2022-12-10T02:13:12;-0.28;99.99
67275;DHT22;55463;52.324;5.122;2022-12-10T02:15:57;-0.21;99.99
67275;DHT22;55463;52.324;5.122;2022-12-10T02:18:31;-0.13;99.99
67275;DHT22;55463;52.324;5.122;2022-12-10T02:21:03;-0.11;99.99
67275;DHT22;55463;52.324;5.122;2022-12-10T02:23:41;-0.12;99.99
67275;DHT22;55463;52.324;5.122;2022-12-10T02:26:12;-0.09;99.99
67275;DHT22;55463;52.324;5.122;2022-12-10T02:28:48;-0.12;99.99
67275;DHT22;55463;52.324;5.122;2022-12-10T02:31:18;-0.13;99.99
67275;DHT22;55463;52.324;5.122;2022-12-10T02:33:49;-0.16;99.99
67275;DHT22;55463;52.324;5.122;2022-12-10T02:36:16;-0.18;99.99
67275;DHT22;55463;52.324;5.122;2022-12-10T02:38:43;-0.18;99.99
67275;DHT22;55463;52.324;5.122;2022-12-10T02:41:32;-0.08;99.99
67275;DHT22;55463;52.324;5.122;2022-12-10T02:43:59;-0.06;99.99
67275;DHT22;55463;52.324;5.122;2022-12-10T02:46:27;-0.04;99.99
67275;DHT22;55463;52.324;5.122;2022-12-10T02:48:57;-0.08;99.99
67275;DHT22;55463;52.324;5.122;2022-12-10T02:51:23;-0.04;99.99
67275;DHT22;55463;52.324;5.122;2022-12-10T02:53:59;-0.04;99.99
67275;DHT22;55463;52.324;5.122;2022-12-10T02:56:43;0.01;99.99
67275;DHT22;55463;52.324;5.122;2022-12-10T02:59:37;-0.01;99.99
67275;DHT22;55463;52.324;5.122;2022-12-10T03:02:17;0.01;99.99
67275;DHT22;55463;52.324;5.122;2022-12-10T03:05:11;-0.08;99.99
67275;DHT22;55463;52.324;5.122;2022-12-10T03:10:26;0.01;99.99
67275;DHT22;55463;52.324;5.122;2022-12-10T03:12:59;0.05;99.99
67275;DHT22;55463;52.324;5.122;2022-12-10T03:15:27;0.03;99.99
67275;DHT22;55463;52.324;5.122;2022-12-10T03:17:54;0.01;99.99
67275;DHT22;55463;52.324;5.122;2022-12-10T03:20:22;-0.02;99.99
67275;DHT22;55463;52.324;5.122;2022-12-10T03:22:49;0.02;99.99
67275;DHT22;55463;52.324;5.122;2022-12-10T03:25:18;0.03;99.99
67275;DHT22;55463;52.324;5.122;2022-12-10T03:27:45;0.06;99.99
67275;DHT22;55463;52.324;5.122;2022-12-10T03:30:12;0.05;99.99
67275;DHT22;55463;52.324;5.122;2022-12-10T03:32:38;0.02;99.99
67275;DHT22;55463;52.324;5.122;2022-12-10T03:35:04;-0.09;99.99
67275;DHT22;55463;52.324;5.122;2022-12-10T03:37:31;-0.19;99.99
67275;DHT22;55463;52.324;5.122;2022-12-10T03:39:58;-0.25;99.99
67275;DHT22;55463;52.324;5.122;2022-12-10T03:42:24;-0.26;99.99
67275;DHT22;55463;52.324;5.122;2022-12-10T03:44:50;-0.34;99.99
67275;DHT22;55463;52.324;5.122;2022-12-10T03:47:17;-0.32;99.99
67275;DHT22;55463;52.324;5.122;2022-12-10T03:49:43;-0.36;99.99
67275;DHT22;55463;52.324;5.122;2022-12-10T03:52:09;-0.33;99.99
67275;DHT22;55463;52.324;5.122;2022-12-10T03:54:34;-0.37;99.99
67275;DHT22;55463;52.324;5.122;2022-12-10T03:57:00;-0.43;99.99
67275;DHT22;55463;52.324;5.122;2022-12-10T03:59:25;-0.39;99.99
67275;DHT22;55463;52.324;5.122;2022-12-10T04:01:50;-0.40;99.99
67275;DHT22;55463;52.324;5.122;2022-12-10T04:04:16;-0.40;99.99
67275;DHT22;55463;52.324;5.122;2022-12-10T04:06:42;-0.41;99.99
67275;DHT22;55463;52.324;5.122;2022-12-10T04:09:10;-0.40;99.99
67275;DHT22;55463;52.324;5.122;2022-12-10T04:11:36;-0.34;99.99
67275;DHT22;55463;52.324;5.122;2022-12-10T04:14:01;-0.32;99.99
67275;DHT22;55463;52.324;5.122;2022-12-10T04:16:45;-0.23;99.99
67275;DHT22;55463;52.324;5.122;2022-12-10T04:19:13;-0.22;99.99
67275;DHT22;55463;52.324;5.122;2022-12-10T04:21:40;-0.28;99.99
67275;DHT22;55463;52.324;5.122;2022-12-10T04:24:26;-0.26;99.99
67275;DHT22;55463;52.324;5.122;2022-12-10T04:27:21;-0.22;99.99
67275;DHT22;55463;52.324;5.122;2022-12-10T04:29:46;-0.22;99.99
67275;DHT22;55463;52.324;5.122;2022-12-10T04:32:12;-0.19;99.99
67275;DHT22;55463;52.324;5.122;2022-12-10T04:34:37;-0.16;99.99
67275;DHT22;55463;52.324;5.122;2022-12-10T04:37:03;-0.21;99.99
67275;DHT22;55463;52.324;5.122;2022-12-10T04:39:29;-0.21;99.99
67275;DHT22;55463;52.324;5.122;2022-12-10T04:41:54;-0.23;99.99
67275;DHT22;55463;52.324;5.122;2022-12-10T04:44:20;-0.30;99.99
67275;DHT22;55463;52.324;5.122;2022-12-10T04:46:46;-0.32;99.99
67275;DHT22;55463;52.324;5.122;2022-12-10T04:49:12;-0.33;99.99
67275;DHT22;55463;52.324;5.122;2022-12-10T04:51:39;-0.33;99.99
67275;DHT22;55463;52.324;5.122;2022-12-10T04:54:05;-0.29;99.99
67275;DHT22;55463;52.324;5.122;2022-12-10T04:56:31;-0.32;99.99
67275;DHT22;55463;52.324;5.122;2022-12-10T04:58:57;-0.34;99.99
67275;DHT22;55463;52.324;5.122;2022-12-10T05:01:22;-0.33;99.99
67275;DHT22;55463;52.324;5.122;2022-12-10T05:03:48;-0.32;99.99
67275;DHT22;55463;52.324;5.122;2022-12-10T05:06:15;-0.34;99.99
67275;DHT22;55463;52.324;5.122;2022-12-10T05:08:41;-0.36;99.99
67275;DHT22;55463;52.324;5.122;2022-12-10T05:11:10;-0.33;99.99
67275;DHT22;55463;52.324;5.122;2022-12-10T05:13:36;-0.41;99.99
67275;DHT22;55463;52.324;5.122;2022-12-10T05:16:03;-0.39;99.99
67275;DHT22;55463;52.324;5.122;2022-12-10T05:18:29;-0.36;99.99
67275;DHT22;55463;52.324;5.122;2022-12-10T05:20:54;-0.41;99.99
67275;DHT22;55463;52.324;5.122;2022-12-10T05:23:22;-0.53;99.99
67275;DHT22;55463;52.324;5.122;2022-12-10T05:28:28;-0.49;99.99
67275;DHT22;55463;52.324;5.122;2022-12-10T05:30:54;-0.49;99.99
67275;DHT22;55463;52.324;5.122;2022-12-10T05:33:19;-0.49;99.99
67275;DHT22;55463;52.324;5.122;2022-12-10T05:35:59;-0.47;99.99
67275;DHT22;55463;52.324;5.122;2022-12-10T05:38:26;-0.43;99.99
67275;DHT22;55463;52.324;5.122;2022-12-10T05:40:51;-0.50;99.99
67275;DHT22;55463;52.324;5.122;2022-12-10T05:43:17;-0.53;99.99
67275;DHT22;55463;52.324;5.122;2022-12-10T05:45:42;-0.52;99.99
67275;DHT22;55463;52.324;5.122;2022-12-10T05:48:12;-0.47;99.99
67275;DHT22;55463;52.324;5.122;2022-12-10T05:50:39;-0.37;99.99
67275;DHT22;55463;52.324;5.122;2022-12-10T05:53:04;-0.39;99.99
67275;DHT22;55463;52.324;5.122;2022-12-10T05:55:30;-0.47;99.99
67275;DHT22;55463;52.324;5.122;2022-12-10T05:57:58;-0.54;99.99
67275;DHT22;55463;52.324;5.122;2022-12-10T06:00:23;-0.46;99.99
67275;DHT22;55463;52.324;5.122;2022-12-10T06:02:50;-0.43;99.99
67275;DHT22;55463;52.324;5.122;2022-12-10T06:05:16;-0.41;99.99
67275;DHT22;55463;52.324;5.122;2022-12-10T06:07:41;-0.46;99.99
67275;DHT22;55463;52.324;5.122;2022-12-10T06:10:07;-0.44;99.99
67275;DHT22;55463;52.324;5.122;2022-12-10T06:12:33;-0.44;99.99
67275;DHT22;55463;52.324;5.122;2022-12-10T06:14:58;-0.52;99.99
67275;DHT22;55463;52.324;5.122;2022-12-10T06:17:24;-0.56;99.99
67275;DHT22;55463;52.324;5.122;2022-12-10T06:19:49;-0.61;99.99
67275;DHT22;55463;52.324;5.122;2022-12-10T06:22:14;-0.63;99.99
67275;DHT22;55463;52.324;5.122;2022-12-10T06:24:40;-0.63;99.99
67275;DHT22;55463;52.324;5.122;2022-12-10T06:27:05;-0.61;99.99
67275;DHT22;55463;52.324;5.122;2022-12-10T06:29:31;-0.63;99.99
67275;DHT22;55463;52.324;5.122;2022-12-10T06:31:56;-0.58;99.99
67275;DHT22;55463;52.324;5.122;2022-12-10T06:34:21;-0.61;99.99
67275;DHT22;55463;52.324;5.122;2022-12-10T06:36:47;-0.57;99.99
67275;DHT22;55463;52.324;5.122;2022-12-10T06:39:12;-0.61;99.99
67275;DHT22;55463;52.324;5.122;2022-12-10T06:41:38;-0.52;99.99
67275;DHT22;55463;52.324;5.122;2022-12-10T06:44:07;-0.47;99.99
67275;DHT22;55463;52.324;5.122;2022-12-10T06:46:32;-0.53;99.99
67275;DHT22;55463;52.324;5.122;2022-12-10T06:48:58;-0.50;99.99
67275;DHT22;55463;52.324;5.122;2022-12-10T06:51:23;-0.50;99.99
67275;DHT22;55463;52.324;5.122;2022-12-10T06:53:48;-0.52;99.99
67275;DHT22;55463;52.324;5.122;2022-12-10T06:56:16;-0.53;99.99
67275;DHT22;55463;52.324;5.122;2022-12-10T06:58:42;-0.54;99.99
67275;DHT22;55463;52.324;5.122;2022-12-10T07:01:11;-0.54;99.99
67275;DHT22;55463;52.324;5.122;2022-12-10T07:03:37;-0.54;99.99
67275;DHT22;55463;52.324;5.122;2022-12-10T07:06:03;-0.58;99.99
67275;DHT22;55463;52.324;5.122;2022-12-10T07:08:29;-0.58;99.99
67275;DHT22;55463;52.324;5.122;2022-12-10T07:10:55;-0.58;99.99
67275;DHT22;55463;52.324;5.122;2022-12-10T07:13:20;-0.60;99.99
67275;DHT22;55463;52.324;5.122;2022-12-10T07:15:46;-0.57;99.99
67275;DHT22;55463;52.324;5.122;2022-12-10T07:18:11;-0.54;99.99
67275;DHT22;55463;52.324;5.122;2022-12-10T07:20:37;-0.54;99.99
67275;DHT22;55463;52.324;5.122;2022-12-10T07:23:02;-0.47;99.99
67275;DHT22;55463;52.324;5.122;2022-12-10T07:25:27;-0.49;99.99
67275;DHT22;55463;52.324;5.122;2022-12-10T07:27:53;-0.43;99.99
67275;DHT22;55463;52.324;5.122;2022-12-10T07:30:19;-0.41;99.99
67275;DHT22;55463;52.324;5.122;2022-12-10T07:32:44;-0.49;99.99
67275;DHT22;55463;52.324;5.122;2022-12-10T07:35:09;-0.44;99.99
67275;DHT22;55463;52.324;5.122;2022-12-10T07:37:35;-0.50;99.99
67275;DHT22;55463;52.324;5.122;2022-12-10T07:40:00;-0.53;99.99
67275;DHT22;55463;52.324;5.122;2022-12-10T07:42:25;-0.50;99.99
67275;DHT22;55463;52.324;5.122;2022-12-10T07:44:51;-0.50;99.99
67275;DHT22;55463;52.324;5.122;2022-12-10T07:47:16;-0.49;99.99
67275;DHT22;55463;52.324;5.122;2022-12-10T07:49:42;-0.46;99.99
67275;DHT22;55463;52.324;5.122;2022-12-10T07:52:07;-0.36;99.99
67275;DHT22;55463;52.324;5.122;2022-12-10T07:54:33;-0.41;99.99
67275;DHT22;55463;52.324;5.122;2022-12-10T07:56:59;-0.43;99.99
67275;DHT22;55463;52.324;5.122;2022-12-10T07:59:24;-0.46;99.99
67275;DHT22;55463;52.324;5.122;2022-12-10T08:01:49;-0.50;99.99
67275;DHT22;55463;52.324;5.122;2022-12-10T08:04:15;-0.54;99.99
67275;DHT22;55463;52.324;5.122;2022-12-10T08:06:40;-0.54;99.99
67275;DHT22;55463;52.324;5.122;2022-12-10T08:09:06;-0.52;99.99
67275;DHT22;55463;52.324;5.122;2022-12-10T08:11:32;-0.49;99.99
67275;DHT22;55463;52.324;5.122;2022-12-10T08:13:58;-0.54;99.99
67275;DHT22;55463;52.324;5.122;2022-12-10T08:16:25;-0.60;99.99
67275;DHT22;55463;52.324;5.122;2022-12-10T08:18:53;-0.63;99.99
67275;DHT22;55463;52.324;5.122;2022-12-10T08:21:20;-0.60;99.99
67275;DHT22;55463;52.324;5.122;2022-12-10T08:23:46;-0.56;99.99
67275;DHT22;55463;52.324;5.122;2022-12-10T08:26:23;-0.57;99.99
67275;DHT22;55463;52.324;5.122;2022-12-10T08:28:50;-0.60;99.99
67275;DHT22;55463;52.324;5.122;2022-12-10T08:31:18;-0.57;99.99
67275;DHT22;55463;52.324;5.122;2022-12-10T08:33:44;-0.53;99.99
67275;DHT22;55463;52.324;5.122;2022-12-10T08:36:14;-0.44;99.99
67275;DHT22;55463;52.324;5.122;2022-12-10T08:38:40;-0.47;99.99
67275;DHT22;55463;52.324;5.122;2022-12-10T08:41:12;-0.43;99.99
67275;DHT22;55463;52.324;5.122;2022-12-10T08:43:37;-0.36;99.99
67275;DHT22;55463;52.324;5.122;2022-12-10T08:46:03;-0.36;99.99
67275;DHT22;55463;52.324;5.122;2022-12-10T08:48:28;-0.46;99.99
67275;DHT22;55463;52.324;5.122;2022-12-10T08:50:54;-0.53;99.99
67275;DHT22;55463;52.324;5.122;2022-12-10T08:53:19;-0.49;99.99
67275;DHT22;55463;52.324;5.122;2022-12-10T08:55:45;-0.61;99.99
67275;DHT22;55463;52.324;5.122;2022-12-10T08:58:10;-0.66;99.99
67275;DHT22;55463;52.324;5.122;2022-12-10T09:00:36;-0.60;99.99
67275;DHT22;55463;52.324;5.122;2022-12-10T09:03:03;-0.60;99.99
67275;DHT22;55463;52.324;5.122;2022-12-10T09:05:28;-0.54;99.99
67275;DHT22;55463;52.324;5.122;2022-12-10T09:07:54;-0.53;99.99
67275;DHT22;55463;52.324;5.122;2022-12-10T09:10:19;-0.50;99.99
67275;DHT22;55463;52.324;5.122;2022-12-10T09:12:46;-0.47;99.99
67275;DHT22;55463;52.324;5.122;2022-12-10T09:15:12;-0.39;99.99
67275;DHT22;55463;52.324;5.122;2022-12-10T09:17:37;-0.39;99.99
67275;DHT22;55463;52.324;5.122;2022-12-10T09:20:05;-0.36;99.99
67275;DHT22;55463;52.324;5.122;2022-12-10T09:22:31;-0.36;99.99
67275;DHT22;55463;52.324;5.122;2022-12-10T09:24:57;-0.30;99.99
67275;DHT22;55463;52.324;5.122;2022-12-10T09:27:22;-0.25;99.99
67275;DHT22;55463;52.324;5.122;2022-12-10T09:29:48;-0.26;99.99
67275;DHT22;55463;52.324;5.122;2022-12-10T09:32:13;-0.29;99.99
67275;DHT22;55463;52.324;5.122;2022-12-10T09:34:38;-0.22;99.99
67275;DHT22;55463;52.324;5.122;2022-12-10T09:37:04;-0.28;99.99
67275;DHT22;55463;52.324;5.122;2022-12-10T09:39:29;-0.30;99.99
67275;DHT22;55463;52.324;5.122;2022-12-10T09:47:33;-0.30;99.99
67275;DHT22;55463;52.324;5.122;2022-12-10T09:50:16;-0.22;99.99
67275;DHT22;55463;52.324;5.122;2022-12-10T09:52:45;-0.21;99.99
67275;DHT22;55463;52.324;5.122;2022-12-10T09:55:19;-0.28;99.99
67275;DHT22;55463;52.324;5.122;2022-12-10T09:57:48;-0.26;99.99
67275;DHT22;55463;52.324;5.122;2022-12-10T10:02:45;-0.22;99.99
67275;DHT22;55463;52.324;5.122;2022-12-10T10:05:27;-0.23;99.99
67275;DHT22;55463;52.324;5.122;2022-12-10T10:07:55;-0.11;99.99
67275;DHT22;55463;52.324;5.122;2022-12-10T10:10:40;-0.15;99.99
67275;DHT22;55463;52.324;5.122;2022-12-10T10:15:34;-0.22;99.99
67275;DHT22;55463;52.324;5.122;2022-12-10T10:18:11;-0.25;99.99
67275;DHT22;55463;52.324;5.122;2022-12-10T10:20:39;-0.29;99.99
67275;DHT22;55463;52.324;5.122;2022-12-10T10:23:05;-0.40;99.99
67275;DHT22;55463;52.324;5.122;2022-12-10T10:25:31;-0.41;99.99
67275;DHT22;55463;52.324;5.122;2022-12-10T10:27:56;-0.39;99.99
67275;DHT22;55463;52.324;5.122;2022-12-10T10:30:23;-0.32;99.99
67275;DHT22;55463;52.324;5.122;2022-12-10T10:32:52;-0.30;99.99
67275;DHT22;55463;52.324;5.122;2022-12-10T10:35:29;-0.29;99.99
67275;DHT22;55463;52.324;5.122;2022-12-10T10:38:06;-0.26;99.99
67275;DHT22;55463;52.324;5.122;2022-12-10T10:40:39;-0.22;99.99
67275;DHT22;55463;52.324;5.122;2022-12-10T10:43:05;-0.30;99.99
67275;DHT22;55463;52.324;5.122;2022-12-10T10:45:36;-0.34;99.99
67275;DHT22;55463;52.324;5.122;2022-12-10T10:48:06;-0.30;99.99
67275;DHT22;55463;52.324;5.122;2022-12-10T10:50:37;-0.30;99.99
67275;DHT22;55463;52.324;5.122;2022-12-10T10:55:45;-0.33;99.99
67275;DHT22;55463;52.324;5.122;2022-12-10T10:58:18;-0.32;99.99
67275;DHT22;55463;52.324;5.122;2022-12-10T11:00:56;-0.32;99.99
67275;DHT22;55463;52.324;5.122;2022-12-10T11:03:22;-0.26;99.99
67275;DHT22;55463;52.324;5.122;2022-12-10T11:05:48;-0.21;99.99
67275;DHT22;55463;52.324;5.122;2022-12-10T11:08:17;-0.32;99.99
67275;DHT22;55463;52.324;5.122;2022-12-10T11:11:04;-0.23;99.99
67275;DHT22;55463;52.324;5.122;2022-12-10T11:13:34;-0.22;99.99
67275;DHT22;55463;52.324;5.122;2022-12-10T11:18:36;-0.19;99.99
67275;DHT22;55463;52.324;5.122;2022-12-10T11:23:39;-0.19;99.99
67275;DHT22;55463;52.324;5.122;2022-12-10T11:26:15;-0.26;99.99
67275;DHT22;55463;52.324;5.122;2022-12-10T11:35:03;-0.15;99.99
67275;DHT22;55463;52.324;5.122;2022-12-10T11:50:55;-0.11;99.99
67275;DHT22;55463;52.324;5.122;2022-12-10T11:56:21;-0.02;99.99
67275;DHT22;55463;52.324;5.122;2022-12-10T12:07:39;-0.02;99.99
67275;DHT22;55463;52.324;5.122;2022-12-10T12:13:04;-0.04;99.99
67275;DHT22;55463;52.324;5.122;2022-12-10T12:15:36;0.02;99.99
67275;DHT22;55463;52.324;5.122;2022-12-10T12:21:13;0.01;99.99
67275;DHT22;55463;52.324;5.122;2022-12-10T12:24:12;-0.01;99.99
67275;DHT22;55463;52.324;5.122;2022-12-10T12:27:01;0.02;99.99
67275;DHT22;55463;52.324;5.122;2022-12-10T12:29:37;0.01;99.99
67275;DHT22;55463;52.324;5.122;2022-12-10T12:34:59;-0.02;99.99
67275;DHT22;55463;52.324;5.122;2022-12-10T12:37:52;-0.02;99.99
67275;DHT22;55463;52.324;5.122;2022-12-10T12:40:33;-0.02;99.99
67275;DHT22;55463;52.324;5.122;2022-12-10T12:43:04;0.02;99.99
67275;DHT22;55463;52.324;5.122;2022-12-10T12:45:43;0.07;99.99
67275;DHT22;55463;52.324;5.122;2022-12-10T12:53:33;0.07;99.99
67275;DHT22;55463;52.324;5.122;2022-12-10T12:56:07;0.07;99.99
67275;DHT22;55463;52.324;5.122;2022-12-10T13:03:53;0.22;99.99
67275;DHT22;55463;52.324;5.122;2022-12-10T13:06:29;0.17;99.99
67275;DHT22;55463;52.324;5.122;2022-12-10T13:11:40;0.16;99.99
67275;DHT22;55463;52.324;5.122;2022-12-10T13:17:01;0.23;99.99
67275;DHT22;55463;52.324;5.122;2022-12-10T13:19:29;0.22;99.99
67275;DHT22;55463;52.324;5.122;2022-12-10T13:27:28;0.10;99.99
67275;DHT22;55463;52.324;5.122;2022-12-10T13:30:36;0.09;99.99
67275;DHT22;55463;52.324;5.122;2022-12-10T13:32:45;0.09;99.99
67275;DHT22;55463;52.324;5.122;2022-12-10T13:43:23;0.10;99.99
67275;DHT22;55463;52.324;5.122;2022-12-10T13:46:36;0.06;99.99
67275;DHT22;55463;52.324;5.122;2022-12-10T13:49:18;-0.06;99.99
67275;DHT22;55463;52.324;5.122;2022-12-10T13:54:44;0.01;99.99
67275;DHT22;55463;52.324;5.122;2022-12-10T14:00:07;0.10;99.99
67275;DHT22;55463;52.324;5.122;2022-12-10T14:05:25;0.03;99.99
67275;DHT22;55463;52.324;5.122;2022-12-10T14:07:57;0.03;99.99
67275;DHT22;55463;52.324;5.122;2022-12-10T14:10:30;0.01;99.99
67275;DHT22;55463;52.324;5.122;2022-12-10T14:12:56;-0.02;99.99
67275;DHT22;55463;52.324;5.122;2022-12-10T14:15:24;-0.05;99.99
67275;DHT22;55463;52.324;5.122;2022-12-10T14:17:59;-0.08;99.99
67275;DHT22;55463;52.324;5.122;2022-12-10T14:20:29;0.03;99.99
67275;DHT22;55463;52.324;5.122;2022-12-10T14:22:55;-0.09;99.99
67275;DHT22;55463;52.324;5.122;2022-12-10T14:25:46;-0.15;99.99
67275;DHT22;55463;52.324;5.122;2022-12-10T14:28:16;-0.08;99.99
67275;DHT22;55463;52.324;5.122;2022-12-10T14:30:49;-0.01;99.99
67275;DHT22;55463;52.324;5.122;2022-12-10T14:33:18;0.03;99.99
67275;DHT22;55463;52.324;5.122;2022-12-10T14:35:48;-0.01;99.99
67275;DHT22;55463;52.324;5.122;2022-12-10T14:38:28;-0.01;99.99
67275;DHT22;55463;52.324;5.122;2022-12-10T14:40:55;-0.04;99.99
67275;DHT22;55463;52.324;5.122;2022-12-10T14:43:38;0.01;99.99
67275;DHT22;55463;52.324;5.122;2022-12-10T14:46:05;-0.04;99.99
67275;DHT22;55463;52.324;5.122;2022-12-10T14:48:39;-0.05;99.99
67275;DHT22;55463;52.324;5.122;2022-12-10T14:51:21;-0.08;99.99
67275;DHT22;55463;52.324;5.122;2022-12-10T14:53:49;-0.09;99.99
67275;DHT22;55463;52.324;5.122;2022-12-10T14:56:24;-0.06;99.99
67275;DHT22;55463;52.324;5.122;2022-12-10T14:59:01;-0.04;99.99
67275;DHT22;55463;52.324;5.122;2022-12-10T15:01:34;0.02;99.99
67275;DHT22;55463;52.324;5.122;2022-12-10T15:04:01;0.03;99.99
67275;DHT22;55463;52.324;5.122;2022-12-10T15:06:28;0.07;99.99
67275;DHT22;55463;52.324;5.122;2022-12-10T15:08:57;0.07;99.99
67275;DHT22;55463;52.324;5.122;2022-12-10T15:11:25;0.12;99.99
67275;DHT22;55463;52.324;5.122;2022-12-10T15:13:54;0.19;99.99
67275;DHT22;55463;52.324;5.122;2022-12-10T15:16:31;0.19;99.99
67275;DHT22;55463;52.324;5.122;2022-12-10T15:21:44;0.26;99.99
67275;DHT22;55463;52.324;5.122;2022-12-10T15:24:17;0.24;99.99
67275;DHT22;55463;52.324;5.122;2022-12-10T15:26:50;0.29;99.99
67275;DHT22;55463;52.324;5.122;2022-12-10T15:31:49;0.33;99.99
67275;DHT22;55463;52.324;5.122;2022-12-10T15:34:15;0.30;99.99
67275;DHT22;55463;52.324;5.122;2022-12-10T15:36:52;0.27;99.99
67275;DHT22;55463;52.324;5.122;2022-12-10T15:39:23;0.37;99.99
67275;DHT22;55463;52.324;5.122;2022-12-10T15:41:51;0.37;99.99
67275;DHT22;55463;52.324;5.122;2022-12-10T15:44:38;0.37;99.99
67275;DHT22;55463;52.324;5.122;2022-12-10T15:47:16;0.37;99.99
67275;DHT22;55463;52.324;5.122;2022-12-10T15:49:42;0.40;99.99
67275;DHT22;55463;52.324;5.122;2022-12-10T15:52:25;0.39;99.99
67275;DHT22;55463;52.324;5.122;2022-12-10T15:54:52;0.44;99.99
67275;DHT22;55463;52.324;5.122;2022-12-10T15:59:44;0.49;99.99
67275;DHT22;55463;52.324;5.122;2022-12-10T16:04:51;0.57;99.99
67275;DHT22;55463;52.324;5.122;2022-12-10T16:07:16;0.58;99.99
67275;DHT22;55463;52.324;5.122;2022-12-10T16:09:43;0.60;99.99
67275;DHT22;55463;52.324;5.122;2022-12-10T16:12:13;0.70;99.99
67275;DHT22;55463;52.324;5.122;2022-12-10T16:14:42;0.72;99.99
67275;DHT22;55463;52.324;5.122;2022-12-10T16:17:10;0.84;99.99
67275;DHT22;55463;52.324;5.122;2022-12-10T16:19:35;0.78;99.99
67275;DHT22;55463;52.324;5.122;2022-12-10T16:22:02;0.82;99.99
67275;DHT22;55463;52.324;5.122;2022-12-10T16:24:28;0.79;99.99
67275;DHT22;55463;52.324;5.122;2022-12-10T16:26:53;0.77;99.99
67275;DHT22;55463;52.324;5.122;2022-12-10T16:29:18;0.74;99.99
67275;DHT22;55463;52.324;5.122;2022-12-10T16:31:46;0.74;99.99
67275;DHT22;55463;52.324;5.122;2022-12-10T16:34:11;0.78;99.99
67275;DHT22;55463;52.324;5.122;2022-12-10T16:36:37;0.77;99.99
67275;DHT22;55463;52.324;5.122;2022-12-10T16:39:02;0.81;99.99
67275;DHT22;55463;52.324;5.122;2022-12-10T16:41:28;0.77;99.99
67275;DHT22;55463;52.324;5.122;2022-12-10T16:43:53;0.72;99.99
67275;DHT22;55463;52.324;5.122;2022-12-10T16:46:19;0.74;99.99
67275;DHT22;55463;52.324;5.122;2022-12-10T16:48:44;0.74;99.99
67275;DHT22;55463;52.324;5.122;2022-12-10T16:51:42;0.75;99.99
67275;DHT22;55463;52.324;5.122;2022-12-10T16:54:11;0.77;99.99
67275;DHT22;55463;52.324;5.122;2022-12-10T16:56:38;0.81;99.99
67275;DHT22;55463;52.324;5.122;2022-12-10T16:59:04;0.79;99.99
67275;DHT22;55463;52.324;5.122;2022-12-10T17:01:29;0.71;99.99
67275;DHT22;55463;52.324;5.122;2022-12-10T17:03:57;0.74;99.99
67275;DHT22;55463;52.324;5.122;2022-12-10T17:06:23;0.74;99.99
67275;DHT22;55463;52.324;5.122;2022-12-10T17:08:49;0.65;99.99
67275;DHT22;55463;52.324;5.122;2022-12-10T17:11:26;0.68;99.99
67275;DHT22;55463;52.324;5.122;2022-12-10T17:14:28;0.70;99.99
67275;DHT22;55463;52.324;5.122;2022-12-10T17:16:57;0.68;99.99
67275;DHT22;55463;52.324;5.122;2022-12-10T17:19:26;0.67;99.99
67275;DHT22;55463;52.324;5.122;2022-12-10T17:21:51;0.67;99.99
67275;DHT22;55463;52.324;5.122;2022-12-10T17:24:17;0.65;99.99
67275;DHT22;55463;52.324;5.122;2022-12-10T17:26:45;0.65;99.99
67275;DHT22;55463;52.324;5.122;2022-12-10T17:29:18;0.72;99.99
67275;DHT22;55463;52.324;5.122;2022-12-10T17:31:45;0.70;99.99
67275;DHT22;55463;52.324;5.122;2022-12-10T17:34:13;0.70;99.99
67275;DHT22;55463;52.324;5.122;2022-12-10T17:36:40;0.68;99.99
67275;DHT22;55463;52.324;5.122;2022-12-10T17:39:06;0.74;99.99
67275;DHT22;55463;52.324;5.122;2022-12-10T17:41:32;0.72;99.99
67275;DHT22;55463;52.324;5.122;2022-12-10T17:44:00;0.72;99.99
67275;DHT22;55463;52.324;5.122;2022-12-10T17:46:25;0.78;99.99
67275;DHT22;55463;52.324;5.122;2022-12-10T17:48:52;0.84;99.99